createdAt,value
2023-05-17T00:00:56.821Z,79.49
2023-05-17T00:01:56.826Z,79.60
2023-05-17T00:02:56.838Z,79.60
2023-05-17T00:03:56.794Z,79.74
2023-05-17T00:04:56.835Z,79.63
2023-05-17T00:05:56.826Z,79.74
2023-05-17T00:06:56.736Z,79.84
2023-05-17T00:07:56.702Z,80.05
2023-05-17T00:08:56.696Z,80.05
2023-05-17T00:09:56.703Z,79.94
2023-05-17T00:10:56.670Z,80.05
2023-05-17T00:11:56.647Z,79.94
2023-05-17T00:12:56.633Z,80.08
2023-05-17T00:13:56.629Z,80.08
2023-05-17T00:14:56.638Z,80.19
2023-05-17T00:15:56.604Z,80.19
2023-05-17T00:16:56.651Z,80.29
2023-05-17T00:17:56.734Z,80.39
2023-05-17T00:18:56.675Z,80.39
2023-05-17T00:19:56.605Z,80.19
2023-05-17T00:20:56.530Z,79.94
2023-05-17T00:21:56.519Z,79.74
2023-05-17T00:22:56.497Z,79.63
2023-05-17T00:23:56.484Z,79.53
2023-05-17T00:24:56.525Z,79.74
2023-05-17T00:25:56.449Z,79.94
2023-05-17T00:26:56.447Z,80.15
2023-05-17T00:27:56.428Z,80.05
2023-05-17T00:28:56.427Z,79.60
2023-05-17T00:29:56.420Z,79.80
2023-05-17T00:30:56.405Z,79.39
2023-05-17T00:31:56.378Z,79.12
2023-05-17T00:32:56.455Z,78.92
2023-05-17T00:33:56.352Z,78.61
2023-05-17T00:34:56.430Z,78.71
2023-05-17T00:35:56.352Z,78.71
2023-05-17T00:36:56.320Z,78.85
2023-05-17T00:37:56.293Z,79.16
2023-05-17T00:38:56.288Z,79.36
2023-05-17T00:39:56.323Z,79.47
2023-05-17T00:40:56.259Z,79.47
2023-05-17T00:41:56.263Z,79.71
2023-05-17T00:42:56.227Z,79.81
2023-05-17T00:43:56.211Z,80.02
2023-05-17T00:44:56.232Z,80.33
2023-05-17T00:45:56.215Z,80.43
2023-05-17T00:46:56.181Z,80.77
2023-05-17T00:47:56.238Z,80.98
2023-05-17T00:48:56.197Z,81.19
2023-05-17T00:49:56.145Z,81.29
2023-05-17T00:50:56.130Z,81.39
2023-05-17T00:51:56.108Z,81.60
2023-05-17T00:52:56.105Z,81.70
2023-05-17T00:53:56.101Z,81.70
2023-05-17T00:54:56.780Z,81.49
2023-05-17T00:55:56.107Z,81.39
2023-05-17T00:56:56.051Z,81.39
2023-05-17T00:57:56.025Z,81.60
2023-05-17T00:58:56.045Z,81.81
2023-05-17T00:59:55.999Z,81.91
2023-05-17T01:00:55.990Z,81.81
2023-05-17T01:01:55.982Z,81.81
2023-05-17T01:02:56.029Z,81.49
2023-05-17T01:03:56.027Z,81.63
2023-05-17T01:04:55.994Z,81.95
2023-05-17T01:05:55.927Z,82.25
2023-05-17T01:06:55.917Z,82.35
2023-05-17T01:07:55.910Z,82.56
2023-05-17T01:08:55.894Z,82.77
2023-05-17T01:09:55.875Z,82.77
2023-05-17T01:10:55.869Z,82.67
2023-05-17T01:11:55.848Z,82.35
2023-05-17T01:12:55.848Z,82.35
2023-05-17T01:13:55.828Z,82.56
2023-05-17T01:14:55.831Z,82.67
2023-05-17T01:15:55.795Z,82.77
2023-05-17T01:16:55.780Z,82.67
2023-05-17T01:17:55.897Z,82.46
2023-05-17T01:18:55.813Z,82.46
2023-05-17T01:19:55.777Z,82.46
2023-05-17T01:20:55.729Z,82.46
2023-05-17T01:21:55.728Z,82.67
2023-05-17T01:22:55.716Z,82.67
2023-05-17T01:23:55.691Z,82.97
2023-05-17T01:24:55.666Z,82.97
2023-05-17T01:25:55.649Z,82.87
2023-05-17T01:26:55.656Z,82.87
2023-05-17T01:27:55.630Z,83.07
2023-05-17T01:28:55.619Z,83.18
2023-05-17T01:29:55.601Z,82.97
2023-05-17T01:30:55.609Z,82.97
2023-05-17T01:31:55.588Z,82.77
2023-05-17T01:32:55.609Z,82.77
2023-05-17T01:33:55.611Z,82.87
2023-05-17T01:34:55.528Z,82.81
2023-05-17T01:35:55.517Z,82.81
2023-05-17T01:36:55.524Z,82.81
2023-05-17T01:37:55.504Z,82.91
2023-05-17T01:38:55.486Z,83.05
2023-05-17T01:39:55.457Z,83.15
2023-05-17T01:40:55.475Z,83.47
2023-05-17T01:41:55.456Z,83.77
2023-05-17T01:42:55.438Z,83.98
2023-05-17T01:43:55.408Z,84.08
2023-05-17T01:44:55.400Z,84.39
2023-05-17T01:45:55.407Z,84.39
2023-05-17T01:46:55.412Z,84.39
2023-05-17T01:47:55.403Z,84.49
2023-05-17T01:48:55.467Z,84.59
2023-05-17T01:49:55.337Z,84.59
2023-05-17T01:50:55.342Z,84.59
2023-05-17T01:51:55.306Z,84.39
2023-05-17T01:52:55.301Z,84.19
2023-05-17T01:53:55.280Z,84.19
2023-05-17T01:54:55.287Z,84.29
2023-05-17T01:55:55.267Z,84.35
2023-05-17T01:56:55.246Z,84.45
2023-05-17T01:57:55.243Z,84.35
2023-05-17T01:58:55.250Z,84.35
2023-05-17T01:59:55.203Z,84.25
2023-05-17T02:00:55.208Z,83.80
2023-05-17T02:01:55.175Z,83.32
2023-05-17T02:02:55.239Z,83.12
2023-05-17T02:03:55.194Z,83.12
2023-05-17T02:04:55.201Z,83.12
2023-05-17T02:05:55.151Z,83.01
2023-05-17T02:06:55.132Z,83.12
2023-05-17T02:07:55.097Z,83.32
2023-05-17T02:08:55.093Z,83.42
2023-05-17T02:09:55.084Z,83.63
2023-05-17T02:10:55.066Z,83.12
2023-05-17T02:11:55.053Z,82.81
2023-05-17T02:12:55.032Z,82.81
2023-05-17T02:13:55.015Z,82.91
2023-05-17T02:14:55.029Z,83.12
2023-05-17T02:15:54.984Z,83.22
2023-05-17T02:16:54.986Z,83.32
2023-05-17T02:17:55.072Z,83.42
2023-05-17T02:18:55.098Z,83.73
2023-05-17T02:19:54.963Z,83.94
2023-05-17T02:20:54.928Z,83.73
2023-05-17T02:21:54.905Z,83.56
2023-05-17T02:22:54.926Z,83.47
2023-05-17T02:23:54.904Z,83.56
2023-05-17T02:24:54.892Z,83.56
2023-05-17T02:25:54.854Z,83.56
2023-05-17T02:26:54.852Z,83.77
2023-05-17T02:27:54.831Z,83.98
2023-05-17T02:28:54.837Z,83.98
2023-05-17T02:29:54.813Z,84.01
2023-05-17T02:30:54.803Z,84.01
2023-05-17T02:31:54.841Z,83.81
2023-05-17T02:32:54.870Z,83.91
2023-05-17T02:33:54.925Z,84.01
2023-05-17T02:34:54.743Z,84.22
2023-05-17T02:35:54.735Z,84.22
2023-05-17T02:36:54.716Z,84.47
2023-05-17T02:37:54.718Z,84.67
2023-05-17T02:38:54.712Z,84.88
2023-05-17T02:39:54.689Z,85.19
2023-05-17T02:40:54.663Z,85.30
2023-05-17T02:41:54.651Z,85.19
2023-05-17T02:42:54.643Z,85.19
2023-05-17T02:43:54.646Z,85.19
2023-05-17T02:44:54.644Z,85.19
2023-05-17T02:45:54.612Z,85.19
2023-05-17T02:46:54.651Z,85.19
2023-05-17T02:47:54.636Z,85.19
2023-05-17T02:48:54.600Z,85.39
2023-05-17T02:49:54.546Z,85.25
2023-05-17T02:50:54.542Z,85.36
2023-05-17T02:51:54.544Z,85.25
2023-05-17T02:52:54.510Z,85.15
2023-05-17T02:53:54.488Z,84.84
2023-05-17T02:54:54.478Z,84.53
2023-05-17T02:55:54.466Z,84.53
2023-05-17T02:56:54.453Z,84.53
2023-05-17T02:57:54.443Z,84.64
2023-05-17T02:58:54.430Z,84.84
2023-05-17T02:59:54.410Z,84.74
2023-05-17T03:00:54.404Z,84.74
2023-05-17T03:01:54.386Z,84.84
2023-05-17T03:02:54.503Z,84.64
2023-05-17T03:03:54.646Z,84.47
2023-05-17T03:04:54.417Z,84.06
2023-05-17T03:05:54.325Z,83.85
2023-05-17T03:06:54.345Z,84.16
2023-05-17T03:07:54.330Z,84.51
2023-05-17T03:08:54.309Z,84.81
2023-05-17T03:09:54.267Z,85.13
2023-05-17T03:10:54.333Z,85.33
2023-05-17T03:11:54.269Z,85.44
2023-05-17T03:12:54.255Z,85.44
2023-05-17T03:13:54.224Z,85.37
2023-05-17T03:14:54.215Z,85.27
2023-05-17T03:15:54.201Z,85.17
2023-05-17T03:16:54.209Z,85.17
2023-05-17T03:17:54.211Z,85.27
2023-05-17T03:18:54.306Z,85.37
2023-05-17T03:19:54.199Z,85.37
2023-05-17T03:20:54.157Z,85.58
2023-05-17T03:21:54.141Z,85.37
2023-05-17T03:22:54.184Z,85.58
2023-05-17T03:23:54.080Z,85.78
2023-05-17T03:24:54.092Z,85.78
2023-05-17T03:25:54.084Z,85.78
2023-05-17T03:26:54.088Z,85.78
2023-05-17T03:27:54.086Z,85.78
2023-05-17T03:28:54.027Z,85.78
2023-05-17T03:29:54.009Z,85.68
2023-05-17T03:30:54.072Z,85.89
2023-05-17T03:31:53.988Z,86.10
2023-05-17T03:32:54.022Z,86.10
2023-05-17T03:33:54.017Z,85.68
2023-05-17T03:34:53.979Z,85.68
2023-05-17T03:35:53.941Z,85.89
2023-05-17T03:36:53.928Z,86.20
2023-05-17T03:37:53.926Z,86.30
2023-05-17T03:38:53.896Z,86.30
2023-05-17T03:39:53.896Z,86.41
2023-05-17T03:40:53.887Z,86.30
2023-05-17T03:41:53.856Z,86.20
2023-05-17T03:42:53.854Z,86.41
2023-05-17T03:43:53.833Z,86.51
2023-05-17T03:44:53.834Z,86.71
2023-05-17T03:45:53.793Z,86.71
2023-05-17T03:46:53.787Z,86.61
2023-05-17T03:47:53.822Z,86.71
2023-05-17T03:48:53.811Z,86.71
2023-05-17T03:49:53.764Z,86.71
2023-05-17T03:50:53.736Z,86.71
2023-05-17T03:51:53.739Z,86.78
2023-05-17T03:52:53.718Z,86.78
2023-05-17T03:53:53.697Z,86.68
2023-05-17T03:54:53.697Z,86.57
2023-05-17T03:55:53.668Z,86.57
2023-05-17T03:56:53.641Z,86.57
2023-05-17T03:57:53.648Z,86.78
2023-05-17T03:58:53.653Z,86.94
2023-05-17T03:59:53.617Z,86.84
2023-05-17T04:00:53.603Z,86.74
2023-05-17T04:01:53.592Z,86.53
2023-05-17T04:02:53.651Z,86.43
2023-05-17T04:03:53.600Z,86.49
2023-05-17T04:04:53.629Z,86.60
2023-05-17T04:05:53.572Z,86.39
2023-05-17T04:06:53.532Z,86.18
2023-05-17T04:07:53.517Z,86.18
2023-05-17T04:08:53.517Z,86.39
2023-05-17T04:09:53.497Z,85.97
2023-05-17T04:10:53.490Z,85.67
2023-05-17T04:11:53.461Z,85.57
2023-05-17T04:12:53.480Z,85.57
2023-05-17T04:13:53.458Z,85.67
2023-05-17T04:14:53.502Z,85.87
2023-05-17T04:15:53.408Z,85.94
2023-05-17T04:16:53.405Z,86.15
2023-05-17T04:17:53.468Z,86.24
2023-05-17T04:18:53.533Z,86.45
2023-05-17T04:19:53.408Z,86.66
2023-05-17T04:20:53.355Z,86.61
2023-05-17T04:21:53.327Z,86.41
2023-05-17T04:22:53.337Z,86.10
2023-05-17T04:23:53.331Z,86.00
2023-05-17T04:24:53.308Z,85.59
2023-05-17T04:25:53.302Z,85.28
2023-05-17T04:26:53.276Z,85.38
2023-05-17T04:27:53.289Z,85.59
2023-05-17T04:28:53.228Z,85.69
2023-05-17T04:29:53.229Z,85.59
2023-05-17T04:30:53.229Z,85.38
2023-05-17T04:31:53.190Z,85.28
2023-05-17T04:32:53.249Z,85.79
2023-05-17T04:33:53.234Z,86.00
2023-05-17T04:34:53.159Z,85.89
2023-05-17T04:35:53.147Z,85.79
2023-05-17T04:36:53.159Z,85.89
2023-05-17T04:37:53.143Z,85.86
2023-05-17T04:38:53.117Z,85.65
2023-05-17T04:39:53.182Z,85.24
2023-05-17T04:40:53.087Z,85.44
2023-05-17T04:41:53.085Z,85.55
2023-05-17T04:42:53.072Z,85.34
2023-05-17T04:43:53.055Z,85.34
2023-05-17T04:44:53.031Z,85.55
2023-05-17T04:45:53.019Z,85.55
2023-05-17T04:46:53.040Z,85.44
2023-05-17T04:47:53.071Z,85.44
2023-05-17T04:48:53.045Z,85.34
2023-05-17T04:49:52.956Z,85.20
2023-05-17T04:50:52.969Z,85.10
2023-05-17T04:51:52.951Z,84.99
2023-05-17T04:52:52.932Z,84.48
2023-05-17T04:53:52.913Z,84.58
2023-05-17T04:54:52.902Z,87.46
2023-05-17T04:55:52.906Z,87.42
2023-05-17T04:56:52.874Z,85.57
2023-05-17T04:57:52.871Z,88.24
2023-05-17T04:58:53.142Z,86.46
2023-05-17T04:59:52.863Z,87.07
2023-05-17T05:00:52.840Z,88.06
2023-05-17T05:01:52.781Z,83.95
2023-05-17T05:02:53.415Z,86.27
2023-05-17T05:03:52.821Z,83.70
2023-05-17T05:04:52.883Z,83.61
2023-05-17T05:05:52.768Z,86.54
2023-05-17T05:06:52.743Z,85.99
2023-05-17T05:07:52.726Z,83.90
2023-05-17T05:08:52.816Z,82.56
2023-05-17T05:09:52.712Z,80.21
2023-05-17T05:10:52.703Z,79.69
2023-05-17T05:11:52.675Z,79.90
2023-05-17T05:12:52.670Z,80.14
2023-05-17T05:13:52.631Z,80.04
2023-05-17T05:14:52.654Z,80.24
2023-05-17T05:15:52.661Z,80.86
2023-05-17T05:16:52.597Z,81.51
2023-05-17T05:17:52.672Z,81.92
2023-05-17T05:18:52.766Z,82.33
2023-05-17T05:19:52.838Z,82.33
2023-05-17T05:20:52.544Z,82.23
2023-05-17T05:21:52.538Z,81.92
2023-05-17T05:22:52.519Z,82.13
2023-05-17T05:23:52.508Z,81.62
2023-05-17T05:24:52.521Z,81.30
2023-05-17T05:25:52.483Z,81.41
2023-05-17T05:26:53.183Z,81.16
2023-05-17T05:27:52.453Z,80.79
2023-05-17T05:28:52.464Z,80.69
2023-05-17T05:29:52.439Z,80.90
2023-05-17T05:30:52.430Z,80.90
2023-05-17T05:31:52.460Z,81.00
2023-05-17T05:32:52.514Z,81.20
2023-05-17T05:33:52.413Z,81.41
2023-05-17T05:34:52.380Z,81.62
2023-05-17T05:35:52.339Z,81.30
2023-05-17T05:36:52.348Z,81.82
2023-05-17T05:37:52.326Z,81.88
2023-05-17T05:38:52.329Z,81.88
2023-05-17T05:39:52.306Z,81.27
2023-05-17T05:40:52.333Z,81.06
2023-05-17T05:41:52.273Z,80.96
2023-05-17T05:42:52.251Z,80.55
2023-05-17T05:43:52.289Z,79.93
2023-05-17T05:44:52.311Z,80.28
2023-05-17T05:45:52.203Z,80.79
2023-05-17T05:46:52.232Z,81.06
2023-05-17T05:47:52.253Z,81.06
2023-05-17T05:48:52.251Z,81.16
2023-05-17T05:49:52.158Z,81.06
2023-05-17T05:50:52.148Z,80.82
2023-05-17T05:51:52.134Z,81.13
2023-05-17T05:52:53.457Z,80.92
2023-05-17T05:53:52.125Z,80.62
2023-05-17T05:54:52.098Z,80.72
2023-05-17T05:55:52.105Z,80.00
2023-05-17T05:56:52.069Z,80.10
2023-05-17T05:57:52.074Z,80.21
2023-05-17T05:58:52.055Z,80.31
2023-05-17T05:59:52.026Z,80.82
2023-05-17T06:00:52.042Z,81.02
2023-05-17T06:01:52.006Z,80.92
2023-05-17T06:02:52.046Z,80.92
2023-05-17T06:03:51.976Z,81.23
2023-05-17T06:04:52.069Z,81.02
2023-05-17T06:05:52.015Z,80.92
2023-05-17T06:06:53.097Z,80.99
2023-05-17T06:07:51.959Z,80.37
2023-05-17T06:08:51.909Z,80.27
2023-05-17T06:09:51.894Z,80.58
2023-05-17T06:10:51.914Z,81.09
2023-05-17T06:11:51.862Z,80.68
2023-05-17T06:12:51.867Z,81.26
2023-05-17T06:13:51.857Z,80.74
2023-05-17T06:14:51.823Z,80.13
2023-05-17T06:15:51.817Z,80.13
2023-05-17T06:16:51.806Z,80.23
2023-05-17T06:17:51.916Z,80.23
2023-05-17T06:18:51.855Z,80.09
2023-05-17T06:19:51.801Z,80.19
2023-05-17T06:20:51.740Z,80.30
2023-05-17T06:21:51.756Z,80.60
2023-05-17T06:22:51.829Z,80.60
2023-05-17T06:23:51.706Z,79.58
2023-05-17T06:24:51.687Z,78.35
2023-05-17T06:25:51.670Z,78.56
2023-05-17T06:26:51.667Z,78.97
2023-05-17T06:27:51.655Z,77.94
2023-05-17T06:28:51.624Z,77.94
2023-05-17T06:29:51.620Z,78.25
2023-05-17T06:30:51.612Z,78.08
2023-05-17T06:31:51.725Z,78.15
2023-05-17T06:32:51.689Z,78.45
2023-05-17T06:33:51.639Z,78.45
2023-05-17T06:34:51.568Z,78.66
2023-05-17T06:35:56.894Z,78.86
2023-05-17T06:36:52.531Z,77.84
2023-05-17T06:37:51.514Z,77.64
2023-05-17T06:38:51.481Z,77.94
2023-05-17T06:39:55.996Z,77.64
2023-05-17T06:40:52.494Z,77.60
2023-05-17T06:41:51.670Z,77.60
2023-05-17T06:42:51.455Z,76.88
2023-05-17T06:43:51.442Z,76.17
2023-05-17T06:44:51.410Z,76.06
2023-05-17T06:45:51.517Z,76.27
2023-05-17T06:46:51.377Z,76.34
2023-05-17T06:47:51.465Z,76.64
2023-05-17T06:48:51.719Z,76.43
2023-05-17T06:49:51.378Z,76.23
2023-05-17T06:50:51.337Z,75.52
2023-05-17T06:51:51.300Z,75.01
2023-05-17T06:52:51.346Z,75.52
2023-05-17T06:53:51.313Z,75.72
2023-05-17T06:54:51.286Z,75.52
2023-05-17T06:55:51.276Z,75.72
2023-05-17T06:56:51.240Z,75.52
2023-05-17T06:57:51.248Z,75.38
2023-05-17T06:58:51.237Z,75.59
2023-05-17T06:59:51.224Z,74.15
2023-05-17T07:00:51.179Z,73.23
2023-05-17T07:01:51.177Z,73.33
2023-05-17T07:02:51.189Z,73.94
2023-05-17T07:03:51.276Z,74.93
2023-05-17T07:04:51.181Z,74.84
2023-05-17T07:05:51.137Z,74.80
2023-05-17T07:06:51.120Z,74.39
2023-05-17T07:07:51.871Z,74.80
2023-05-17T07:08:51.145Z,74.49
2023-05-17T07:09:51.069Z,74.18
2023-05-17T07:10:51.064Z,74.39
2023-05-17T07:11:51.046Z,72.86
2023-05-17T07:12:51.029Z,73.27
2023-05-17T07:13:52.783Z,73.88
2023-05-17T07:14:51.181Z,74.49
2023-05-17T07:15:50.997Z,74.59
2023-05-17T07:16:50.987Z,75.21
2023-05-17T07:17:51.020Z,75.21
2023-05-17T07:18:51.131Z,75.21
2023-05-17T07:19:53.394Z,73.98
2023-05-17T07:20:50.919Z,73.06
2023-05-17T07:21:50.926Z,73.27
2023-05-17T07:22:50.917Z,73.88
2023-05-17T07:23:50.913Z,73.98
2023-05-17T07:24:50.862Z,73.10
2023-05-17T07:25:50.849Z,73.36
2023-05-17T07:26:52.333Z,73.57
2023-05-17T07:27:50.847Z,73.16
2023-05-17T07:28:50.814Z,72.24
2023-05-17T07:29:50.804Z,72.45
2023-05-17T07:30:50.776Z,72.96
2023-05-17T07:31:50.785Z,72.65
2023-05-17T07:32:50.828Z,72.34
2023-05-17T07:33:50.779Z,72.14
2023-05-17T07:34:50.737Z,71.94
2023-05-17T07:35:50.766Z,72.55
2023-05-17T07:36:50.712Z,72.41
2023-05-17T07:37:50.716Z,74.46
2023-05-17T07:38:50.676Z,71.19
2023-05-17T07:39:50.664Z,71.59
2023-05-17T07:40:50.639Z,71.91
2023-05-17T07:41:50.636Z,72.31
2023-05-17T07:42:50.665Z,70.47
2023-05-17T07:43:50.611Z,70.98
2023-05-17T07:44:50.596Z,71.97
2023-05-17T07:45:50.582Z,72.31
2023-05-17T07:46:50.604Z,70.47
2023-05-17T07:47:50.630Z,70.57
2023-05-17T07:48:50.738Z,70.88
2023-05-17T07:49:50.537Z,71.50
2023-05-17T07:50:50.527Z,72.11
2023-05-17T07:51:50.545Z,72.65
2023-05-17T07:52:50.489Z,73.16
2023-05-17T07:53:50.502Z,73.68
2023-05-17T07:54:50.474Z,74.08
2023-05-17T07:55:51.238Z,74.69
2023-05-17T07:56:50.460Z,74.49
2023-05-17T07:57:50.465Z,74.49
2023-05-17T07:58:50.454Z,74.59
2023-05-17T07:59:50.397Z,73.16
2023-05-17T08:00:50.404Z,72.86
2023-05-17T08:01:50.383Z,73.47
2023-05-17T08:02:50.381Z,74.80
2023-05-17T08:03:50.362Z,74.18
2023-05-17T08:04:50.372Z,72.82
2023-05-17T08:05:50.379Z,72.92
2023-05-17T08:06:50.333Z,73.03
2023-05-17T08:07:50.305Z,71.70
2023-05-17T08:08:50.273Z,71.39
2023-05-17T08:09:50.274Z,71.19
2023-05-17T08:10:50.288Z,70.78
2023-05-17T08:11:50.250Z,70.88
2023-05-17T08:12:50.205Z,69.45
2023-05-17T08:13:50.204Z,68.80
2023-05-17T08:14:50.213Z,70.23
2023-05-17T08:15:53.659Z,70.54
2023-05-17T08:16:51.170Z,69.11
2023-05-17T08:17:50.430Z,69.42
2023-05-17T08:18:50.296Z,68.50
2023-05-17T08:19:50.222Z,68.30
2023-05-17T08:20:50.130Z,68.09
2023-05-17T08:21:50.102Z,68.09
2023-05-17T08:22:50.079Z,67.79
2023-05-17T08:23:50.075Z,68.09
2023-05-17T08:24:50.073Z,70.03
2023-05-17T08:25:50.046Z,70.31
2023-05-17T08:26:50.038Z,69.90
2023-05-17T08:27:50.019Z,68.06
2023-05-17T08:28:50.038Z,69.38
2023-05-17T08:29:50.136Z,70.00
2023-05-17T08:30:49.984Z,68.74
2023-05-17T08:31:49.962Z,68.03
2023-05-17T08:32:50.010Z,67.21
2023-05-17T08:33:49.981Z,66.42
2023-05-17T08:34:49.972Z,66.63
2023-05-17T08:35:49.910Z,67.65
2023-05-17T08:36:49.912Z,66.83
2023-05-17T08:37:49.884Z,65.71
2023-05-17T08:38:49.883Z,65.23
2023-05-17T08:39:49.909Z,65.34
2023-05-17T08:40:49.841Z,65.74
2023-05-17T08:41:49.856Z,65.06
2023-05-17T08:42:49.837Z,65.67
2023-05-17T08:43:49.825Z,66.08
2023-05-17T08:44:49.780Z,66.69
2023-05-17T08:45:49.773Z,66.59
2023-05-17T08:46:49.759Z,66.77
2023-05-17T08:47:49.780Z,66.05
2023-05-17T08:48:49.801Z,66.15
2023-05-17T08:49:49.714Z,66.05
2023-05-17T08:50:49.676Z,64.90
2023-05-17T08:51:49.694Z,65.03
2023-05-17T08:52:49.790Z,64.83
2023-05-17T08:53:49.673Z,64.90
2023-05-17T08:54:49.649Z,66.02
2023-05-17T08:55:49.644Z,65.71
2023-05-17T08:56:49.627Z,66.42
2023-05-17T08:57:49.660Z,64.97
2023-05-17T08:58:56.165Z,63.85
2023-05-17T08:59:50.588Z,64.32
2023-05-17T09:00:50.027Z,65.25
2023-05-17T09:01:49.556Z,64.70
2023-05-17T09:02:49.656Z,63.24
2023-05-17T09:03:49.589Z,63.15
2023-05-17T09:04:49.579Z,63.15
2023-05-17T09:05:49.611Z,63.65
2023-05-17T09:06:49.504Z,62.16
2023-05-17T09:07:49.501Z,62.05
2023-05-17T09:08:49.455Z,61.34
2023-05-17T09:09:49.546Z,62.08
2023-05-17T09:10:49.436Z,61.16
2023-05-17T09:11:49.440Z,62.21
2023-05-17T09:12:49.398Z,62.93
2023-05-17T09:13:49.451Z,63.03
2023-05-17T09:14:49.385Z,64.76
2023-05-17T09:15:49.378Z,63.03
2023-05-17T09:16:49.386Z,63.85
2023-05-17T09:17:49.443Z,62.73
2023-05-17T09:18:49.477Z,62.82
2023-05-17T09:19:49.382Z,63.71
2023-05-17T09:20:49.292Z,63.71
2023-05-17T09:21:49.308Z,63.92
2023-05-17T09:22:49.270Z,63.13
2023-05-17T09:24:01.677Z,62.93
2023-05-17T09:24:50.241Z,62.93
2023-05-17T09:25:49.289Z,62.73
2023-05-17T09:26:49.246Z,62.42
2023-05-17T09:27:49.248Z,63.03
2023-05-17T09:28:49.187Z,63.23
2023-05-17T09:29:49.193Z,62.49
2023-05-17T09:30:49.201Z,62.49
2023-05-17T09:31:49.180Z,63.89
2023-05-17T09:33:49.157Z,59.78
2023-05-17T09:34:49.116Z,59.68
2023-05-17T09:35:49.134Z,59.17
2023-05-17T09:36:49.087Z,59.78
2023-05-17T09:37:49.078Z,58.94
2023-05-17T09:38:49.057Z,57.31
2023-05-17T09:39:49.046Z,57.04
2023-05-17T09:40:49.042Z,59.38
2023-05-17T09:41:49.035Z,57.34
2023-05-17T09:42:49.006Z,58.46
2023-05-17T09:43:49.008Z,57.54
2023-05-17T09:44:48.990Z,57.14
2023-05-17T09:45:48.991Z,56.22
2023-05-17T09:46:48.989Z,56.12
2023-05-17T09:47:49.019Z,57.34
2023-05-17T09:48:49.011Z,57.24
2023-05-17T09:49:48.941Z,56.90
2023-05-17T09:50:48.900Z,54.97
2023-05-17T09:51:48.911Z,56.70
2023-05-17T09:52:48.879Z,55.15
2023-05-17T09:53:48.872Z,53.83
2023-05-17T09:54:48.875Z,53.96
2023-05-17T09:55:48.841Z,56.07
2023-05-17T09:56:48.834Z,53.11
2023-05-17T09:57:48.809Z,52.71
2023-05-17T09:58:48.799Z,54.92
2023-05-17T09:59:48.804Z,53.09
2023-05-17T10:00:48.991Z,55.60
2023-05-17T10:01:48.770Z,55.40
2023-05-17T10:02:48.786Z,53.17
2023-05-17T10:03:48.862Z,49.81
2023-05-17T10:04:48.741Z,51.84
2023-05-17T10:05:48.715Z,52.23
2023-05-17T10:06:51.723Z,52.33
2023-05-17T10:07:48.695Z,52.43
2023-05-17T10:08:48.696Z,51.01
2023-05-17T10:09:48.674Z,50.09
2023-05-17T10:10:48.630Z,51.11
2023-05-17T10:11:48.650Z,51.92
2023-05-17T10:12:48.613Z,52.35
2023-05-17T10:13:48.612Z,51.03
2023-05-17T10:14:48.692Z,51.44
2023-05-17T10:15:48.597Z,50.83
2023-05-17T10:16:48.564Z,49.51
2023-05-17T10:17:48.603Z,49.00
2023-05-17T10:18:48.599Z,49.71
2023-05-17T10:19:48.685Z,54.08
2023-05-17T10:20:48.519Z,51.92
2023-05-17T10:21:48.514Z,51.21
2023-05-17T10:22:48.486Z,49.89
2023-05-17T10:23:48.482Z,49.99
2023-05-17T10:24:48.467Z,49.26
2023-05-17T10:25:48.441Z,49.05
2023-05-17T10:26:48.426Z,46.92
2023-05-17T10:27:48.423Z,48.65
2023-05-17T10:28:48.401Z,49.46
2023-05-17T10:29:50.433Z,50.56
2023-05-17T10:30:48.376Z,50.86
2023-05-17T10:31:48.352Z,51.16
2023-05-17T10:32:48.520Z,49.62
2023-05-17T10:33:48.347Z,51.24
2023-05-17T10:34:54.783Z,50.33
2023-05-17T10:35:49.302Z,49.82
2023-05-17T10:36:48.315Z,50.02
2023-05-17T10:37:48.313Z,51.93
2023-05-17T10:38:48.324Z,48.99
2023-05-17T10:39:48.553Z,50.20
2023-05-17T10:40:48.237Z,49.49
2023-05-17T10:41:48.704Z,49.19
2023-05-17T10:42:48.238Z,48.88
2023-05-17T10:43:48.188Z,51.52
2023-05-17T10:44:48.183Z,50.68
2023-05-17T10:45:48.162Z,50.48
2023-05-17T10:46:48.185Z,48.76
2023-05-17T10:47:48.138Z,52.41
2023-05-17T10:48:48.172Z,50.08
2023-05-17T10:49:48.229Z,47.34
2023-05-17T10:51:01.173Z,48.35
2023-05-17T10:51:49.102Z,47.85
2023-05-17T10:52:48.070Z,47.64
2023-05-17T10:53:48.062Z,45.42
2023-05-17T10:54:48.051Z,45.23
2023-05-17T10:55:48.055Z,45.74
2023-05-17T10:56:48.044Z,47.36
2023-05-17T10:57:51.118Z,45.84
2023-05-17T10:58:48.014Z,46.55
2023-05-17T10:59:47.971Z,45.23
2023-05-17T11:00:47.984Z,45.46
2023-05-17T11:01:47.959Z,46.65
2023-05-17T11:02:47.965Z,50.10
2023-05-17T11:03:47.934Z,51.01
2023-05-17T11:04:47.976Z,49.87
2023-05-17T11:05:48.190Z,52.11
2023-05-17T11:06:47.979Z,51.17
2023-05-17T11:07:47.845Z,50.05
2023-05-17T11:08:47.840Z,50.74
2023-05-17T11:09:47.816Z,51.65
2023-05-17T11:10:47.819Z,49.62
2023-05-17T11:11:47.804Z,49.90
2023-05-17T11:12:47.793Z,48.69
2023-05-17T11:13:47.768Z,50.01
2023-05-17T11:14:47.774Z,48.99
2023-05-17T11:15:47.764Z,46.97
2023-05-17T11:16:47.741Z,44.66
2023-05-17T11:17:47.739Z,44.56
2023-05-17T11:18:47.879Z,45.17
2023-05-17T11:19:47.780Z,45.59
2023-05-17T11:20:47.915Z,46.91
2023-05-17T11:21:47.751Z,49.83
2023-05-17T11:22:47.664Z,51.25
2023-05-17T11:23:47.618Z,49.32
2023-05-17T11:24:47.647Z,50.26
2023-05-17T11:25:47.616Z,49.73
2023-05-17T11:26:47.606Z,49.04
2023-05-17T11:27:47.592Z,47.72
2023-05-17T11:28:47.583Z,47.50
2023-05-17T11:29:47.586Z,47.39
2023-05-17T11:30:47.561Z,48.41
2023-05-17T11:31:47.518Z,49.70
2023-05-17T11:32:47.586Z,47.78
2023-05-17T11:33:47.598Z,49.10
2023-05-17T11:34:47.576Z,47.90
2023-05-17T11:35:50.021Z,46.38
2023-05-17T11:36:47.480Z,47.60
2023-05-17T11:37:47.483Z,49.93
2023-05-17T11:38:48.196Z,48.83
2023-05-17T11:39:47.460Z,48.03
2023-05-17T11:40:47.447Z,49.95
2023-05-17T11:41:47.452Z,48.51
2023-05-17T11:42:47.399Z,48.51
2023-05-17T11:43:47.426Z,49.19
2023-05-17T11:44:47.359Z,49.80
2023-05-17T11:45:47.348Z,47.55
2023-05-17T11:46:47.348Z,45.12
2023-05-17T11:47:47.419Z,47.25
2023-05-17T11:48:47.415Z,48.77
2023-05-17T11:49:47.302Z,48.14
2023-05-17T11:50:47.284Z,48.44
2023-05-17T11:51:47.253Z,47.23
2023-05-17T11:52:47.311Z,47.53
2023-05-17T11:53:47.273Z,45.61
2023-05-17T11:54:47.247Z,46.30
2023-05-17T11:55:47.206Z,47.81
2023-05-17T11:56:47.192Z,47.61
2023-05-17T11:57:47.206Z,46.60
2023-05-17T11:58:47.178Z,46.91
2023-05-17T11:59:47.149Z,44.58
2023-05-17T12:00:47.164Z,44.58
2023-05-17T12:01:47.134Z,42.96
2023-05-17T12:02:47.197Z,43.14
2023-05-17T12:03:47.105Z,45.97
2023-05-17T12:04:47.137Z,44.25
2023-05-17T12:05:47.067Z,46.37
2023-05-17T12:06:47.089Z,43.14
2023-05-17T12:07:47.081Z,43.24
2023-05-17T12:08:47.045Z,42.23
2023-05-17T12:09:47.020Z,43.95
2023-05-17T12:10:47.037Z,45.97
2023-05-17T12:11:47.014Z,43.55
2023-05-17T12:12:47.004Z,41.63
2023-05-17T12:13:46.982Z,42.46
2023-05-17T12:14:46.975Z,44.58
2023-05-17T12:15:46.935Z,43.75
2023-05-17T12:16:46.955Z,44.66
2023-05-17T12:17:48.665Z,46.07
2023-05-17T12:18:47.071Z,43.44
2023-05-17T12:19:47.061Z,44.05
2023-05-17T12:20:46.887Z,44.23
2023-05-17T12:21:46.874Z,43.04
2023-05-17T12:22:46.955Z,44.56
2023-05-17T12:23:48.862Z,45.77
2023-05-17T12:24:46.897Z,45.85
2023-05-17T12:25:46.807Z,48.98
2023-05-17T12:26:46.823Z,43.20
2023-05-17T12:27:46.789Z,43.20
2023-05-17T12:28:46.774Z,43.60
2023-05-17T12:29:46.751Z,42.90
2023-05-17T12:30:46.792Z,43.71
2023-05-17T12:31:46.759Z,43.80
2023-05-17T12:32:46.816Z,43.08
2023-05-17T12:33:46.757Z,40.86
2023-05-17T12:34:46.682Z,42.88
2023-05-17T12:35:46.690Z,42.98
2023-05-17T12:36:46.700Z,46.31
2023-05-17T12:37:46.639Z,48.41
2023-05-17T12:38:46.634Z,46.69
2023-05-17T12:39:46.633Z,46.17
2023-05-17T12:40:46.624Z,45.46
2023-05-17T12:41:46.643Z,42.55
2023-05-17T12:42:46.584Z,43.66
2023-05-17T12:43:46.620Z,42.68
2023-05-17T12:44:46.557Z,41.89
2023-05-17T12:45:46.554Z,42.80
2023-05-17T12:46:46.546Z,42.19
2023-05-17T12:47:46.526Z,43.60
2023-05-17T12:48:46.553Z,42.49
2023-05-17T12:49:46.497Z,40.98
2023-05-17T12:50:46.534Z,40.68
2023-05-17T12:51:46.452Z,41.18
2023-05-17T12:52:46.447Z,43.69
2023-05-17T12:53:46.420Z,41.06